sensor_id;sensor_type;location;lat;lon;timestamp;temperature;humidity
24146;DHT22;12308;50.948;4.706;2023-06-10T00:00:00;23.50;99.90
24146;DHT22;12308;50.948;4.706;2023-06-10T00:02:26;23.40;99.90
24146;DHT22;12308;50.948;4.706;2023-06-10T00:04:52;23.40;99.90
24146;DHT22;12308;50.948;4.706;2023-06-10T00:07:18;23.30;99.90
24146;DHT22;12308;50.948;4.706;2023-06-10T00:09:44;23.30;99.90
24146;DHT22;12308;50.948;4.706;2023-06-10T00:12:10;23.30;99.90
24146;DHT22;12308;50.948;4.706;2023-06-10T00:14:38;23.30;99.90
24146;DHT22;12308;50.948;4.706;2023-06-10T00:17:04;23.30;99.90
24146;DHT22;12308;50.948;4.706;2023-06-10T00:19:29;23.10;99.90
24146;DHT22;12308;50.948;4.706;2023-06-10T00:21:59;23.10;99.90
24146;DHT22;12308;50.948;4.706;2023-06-10T00:24:24;23.10;99.90
24146;DHT22;12308;50.948;4.706;2023-06-10T00:26:50;23.20;99.90
24146;DHT22;12308;50.948;4.706;2023-06-10T00:29:16;23.20;99.90
24146;DHT22;12308;50.948;4.706;2023-06-10T00:31:43;23.20;99.90
24146;DHT22;12308;50.948;4.706;2023-06-10T00:34:09;23.00;99.90
24146;DHT22;12308;50.948;4.706;2023-06-10T00:36:34;23.00;99.90
24146;DHT22;12308;50.948;4.706;2023-06-10T00:39:01;23.20;99.90
24146;DHT22;12308;50.948;4.706;2023-06-10T00:41:28;23.10;99.90
24146;DHT22;12308;50.948;4.706;2023-06-10T00:43:53;23.10;99.90
24146;DHT22;12308;50.948;4.706;2023-06-10T00:46:20;23.10;99.90
24146;DHT22;12308;50.948;4.706;2023-06-10T00:48:46;23.10;99.90
24146;DHT22;12308;50.948;4.706;2023-06-10T00:51:12;23.10;99.90
24146;DHT22;12308;50.948;4.706;2023-06-10T00:53:40;23.00;99.90
24146;DHT22;12308;50.948;4.706;2023-06-10T00:56:07;23.00;99.90
24146;DHT22;12308;50.948;4.706;2023-06-10T00:58:33;22.90;99.90
24146;DHT22;12308;50.948;4.706;2023-06-10T01:00:59;22.80;99.90
24146;DHT22;12308;50.948;4.706;2023-06-10T01:03:25;22.80;99.90
24146;DHT22;12308;50.948;4.706;2023-06-10T01:06:06;22.80;99.90
24146;DHT22;12308;50.948;4.706;2023-06-10T01:08:45;22.70;99.90
24146;DHT22;12308;50.948;4.706;2023-06-10T01:11:18;22.60;99.90
24146;DHT22;12308;50.948;4.706;2023-06-10T01:13:45;22.50;99.90
24146;DHT22;12308;50.948;4.706;2023-06-10T01:16:11;22.50;99.90
24146;DHT22;12308;50.948;4.706;2023-06-10T01:18:40;22.40;99.90
24146;DHT22;12308;50.948;4.706;2023-06-10T01:21:06;22.30;99.90
24146;DHT22;12308;50.948;4.706;2023-06-10T01:23:33;22.20;99.90
24146;DHT22;12308;50.948;4.706;2023-06-10T01:26:08;22.10;99.90
24146;DHT22;12308;50.948;4.706;2023-06-10T01:28:51;22.10;99.90
24146;DHT22;12308;50.948;4.706;2023-06-10T01:34:07;21.90;99.90
24146;DHT22;12308;50.948;4.706;2023-06-10T01:36:35;21.90;99.90
24146;DHT22;12308;50.948;4.706;2023-06-10T01:39:00;21.80;99.90
24146;DHT22;12308;50.948;4.706;2023-06-10T01:41:28;21.60;99.90
24146;DHT22;12308;50.948;4.706;2023-06-10T01:43:55;21.50;99.90
24146;DHT22;12308;50.948;4.706;2023-06-10T01:46:20;21.50;99.90
24146;DHT22;12308;50.948;4.706;2023-06-10T01:48:47;21.40;99.90
24146;DHT22;12308;50.948;4.706;2023-06-10T01:51:12;21.40;99.90
24146;DHT22;12308;50.948;4.706;2023-06-10T01:53:38;21.30;99.90
24146;DHT22;12308;50.948;4.706;2023-06-10T01:56:04;21.30;99.90
24146;DHT22;12308;50.948;4.706;2023-06-10T01:58:29;21.20;99.90
24146;DHT22;12308;50.948;4.706;2023-06-10T02:00:56;21.10;99.90
24146;DHT22;12308;50.948;4.706;2023-06-10T02:03:21;21.00;99.90
24146;DHT22;12308;50.948;4.706;2023-06-10T02:05:47;21.00;99.90
24146;DHT22;12308;50.948;4.706;2023-06-10T02:08:12;21.00;99.90
24146;DHT22;12308;50.948;4.706;2023-06-10T02:10:38;21.00;99.90
24146;DHT22;12308;50.948;4.706;2023-06-10T02:13:04;20.90;99.90
24146;DHT22;12308;50.948;4.706;2023-06-10T02:15:30;20.90;99.90
24146;DHT22;12308;50.948;4.706;2023-06-10T02:17:56;20.80;99.90
24146;DHT22;12308;50.948;4.706;2023-06-10T02:20:22;20.90;99.90
24146;DHT22;12308;50.948;4.706;2023-06-10T02:22:47;20.70;99.90
24146;DHT22;12308;50.948;4.706;2023-06-10T02:25:13;20.70;99.90
24146;DHT22;12308;50.948;4.706;2023-06-10T02:27:39;20.70;99.90
24146;DHT22;12308;50.948;4.706;2023-06-10T02:30:05;20.60;99.90
24146;DHT22;12308;50.948;4.706;2023-06-10T02:32:31;20.40;99.90
24146;DHT22;12308;50.948;4.706;2023-06-10T02:34:56;20.30;99.90
24146;DHT22;12308;50.948;4.706;2023-06-10T02:37:23;20.40;99.90
24146;DHT22;12308;50.948;4.706;2023-06-10T02:39:49;20.30;99.90
24146;DHT22;12308;50.948;4.706;2023-06-10T02:42:14;20.20;99.90
24146;DHT22;12308;50.948;4.706;2023-06-10T02:44:40;20.20;99.90
24146;DHT22;12308;50.948;4.706;2023-06-10T02:47:06;20.10;99.90
24146;DHT22;12308;50.948;4.706;2023-06-10T02:49:31;20.00;99.90
24146;DHT22;12308;50.948;4.706;2023-06-10T02:51:57;20.00;99.90
24146;DHT22;12308;50.948;4.706;2023-06-10T02:54:24;20.00;99.90
24146;DHT22;12308;50.948;4.706;2023-06-10T02:56:51;20.10;99.90
24146;DHT22;12308;50.948;4.706;2023-06-10T02:59:18;20.20;99.90
24146;DHT22;12308;50.948;4.706;2023-06-10T03:01:44;20.10;99.90
24146;DHT22;12308;50.948;4.706;2023-06-10T03:04:09;20.10;99.90
24146;DHT22;12308;50.948;4.706;2023-06-10T03:06:38;20.10;99.90
24146;DHT22;12308;50.948;4.706;2023-06-10T03:09:06;20.30;99.90
24146;DHT22;12308;50.948;4.706;2023-06-10T03:11:35;20.20;99.90
24146;DHT22;12308;50.948;4.706;2023-06-10T03:14:01;20.30;99.90
24146;DHT22;12308;50.948;4.706;2023-06-10T03:16:27;20.10;99.90
24146;DHT22;12308;50.948;4.706;2023-06-10T03:18:53;20.00;99.90
24146;DHT22;12308;50.948;4.706;2023-06-10T03:21:19;19.90;99.90
24146;DHT22;12308;50.948;4.706;2023-06-10T03:23:45;19.70;99.90
24146;DHT22;12308;50.948;4.706;2023-06-10T03:26:12;19.70;99.90
24146;DHT22;12308;50.948;4.706;2023-06-10T03:28:40;19.60;99.90
24146;DHT22;12308;50.948;4.706;2023-06-10T03:31:05;19.60;99.90
24146;DHT22;12308;50.948;4.706;2023-06-10T03:33:31;19.50;99.90
24146;DHT22;12308;50.948;4.706;2023-06-10T03:35:57;19.40;99.90
24146;DHT22;12308;50.948;4.706;2023-06-10T03:38:23;19.40;99.90
24146;DHT22;12308;50.948;4.706;2023-06-10T03:40:49;19.30;99.90
24146;DHT22;12308;50.948;4.706;2023-06-10T03:43:14;19.30;99.90
24146;DHT22;12308;50.948;4.706;2023-06-10T03:45:40;19.30;99.90
24146;DHT22;12308;50.948;4.706;2023-06-10T03:48:07;19.30;99.90
24146;DHT22;12308;50.948;4.706;2023-06-10T03:50:34;19.40;99.90
24146;DHT22;12308;50.948;4.706;2023-06-10T03:53:00;19.40;99.90
24146;DHT22;12308;50.948;4.706;2023-06-10T03:55:25;19.50;99.90
24146;DHT22;12308;50.948;4.706;2023-06-10T03:57:51;19.50;99.90
24146;DHT22;12308;50.948;4.706;2023-06-10T04:00:17;19.50;99.90
24146;DHT22;12308;50.948;4.706;2023-06-10T04:02:43;19.60;99.90
24146;DHT22;12308;50.948;4.706;2023-06-10T04:05:15;19.50;99.90
24146;DHT22;12308;50.948;4.706;2023-06-10T04:07:42;19.60;99.90
24146;DHT22;12308;50.948;4.706;2023-06-10T04:10:08;19.70;99.90
24146;DHT22;12308;50.948;4.706;2023-06-10T04:12:35;19.80;99.90
24146;DHT22;12308;50.948;4.706;2023-06-10T04:15:02;19.70;99.90
24146;DHT22;12308;50.948;4.706;2023-06-10T04:17:28;19.60;99.90
24146;DHT22;12308;50.948;4.706;2023-06-10T04:19:53;19.60;99.90
24146;DHT22;12308;50.948;4.706;2023-06-10T04:22:20;19.60;99.90
24146;DHT22;12308;50.948;4.706;2023-06-10T04:24:46;19.80;99.90
24146;DHT22;12308;50.948;4.706;2023-06-10T04:27:12;19.80;99.90
24146;DHT22;12308;50.948;4.706;2023-06-10T04:29:37;19.80;99.90
24146;DHT22;12308;50.948;4.706;2023-06-10T04:32:03;19.80;99.90
24146;DHT22;12308;50.948;4.706;2023-06-10T04:34:31;19.90;99.90
24146;DHT22;12308;50.948;4.706;2023-06-10T04:36:56;20.00;99.90
24146;DHT22;12308;50.948;4.706;2023-06-10T04:39:22;20.10;99.90
24146;DHT22;12308;50.948;4.706;2023-06-10T04:41:48;20.20;99.90
24146;DHT22;12308;50.948;4.706;2023-06-10T04:44:14;20.20;99.90
24146;DHT22;12308;50.948;4.706;2023-06-10T04:46:39;20.30;99.90
24146;DHT22;12308;50.948;4.706;2023-06-10T04:49:05;20.40;99.90
24146;DHT22;12308;50.948;4.706;2023-06-10T04:51:31;20.40;99.90
24146;DHT22;12308;50.948;4.706;2023-06-10T04:53:58;20.50;99.90
24146;DHT22;12308;50.948;4.706;2023-06-10T04:56:25;20.60;99.90
24146;DHT22;12308;50.948;4.706;2023-06-10T04:58:51;20.60;99.90
24146;DHT22;12308;50.948;4.706;2023-06-10T05:01:16;20.70;99.90
24146;DHT22;12308;50.948;4.706;2023-06-10T05:03:42;20.70;99.90
24146;DHT22;12308;50.948;4.706;2023-06-10T05:06:08;20.90;99.90
24146;DHT22;12308;50.948;4.706;2023-06-10T05:08:34;20.90;99.90
24146;DHT22;12308;50.948;4.706;2023-06-10T05:10:59;21.20;99.90
24146;DHT22;12308;50.948;4.706;2023-06-10T05:13:25;21.20;99.90
24146;DHT22;12308;50.948;4.706;2023-06-10T05:15:51;21.30;99.90
24146;DHT22;12308;50.948;4.706;2023-06-10T05:18:16;21.50;99.90
24146;DHT22;12308;50.948;4.706;2023-06-10T05:20:42;21.60;99.90
24146;DHT22;12308;50.948;4.706;2023-06-10T05:23:08;21.70;99.90
24146;DHT22;12308;50.948;4.706;2023-06-10T05:25:34;21.80;99.90
24146;DHT22;12308;50.948;4.706;2023-06-10T05:28:00;21.70;99.90
24146;DHT22;12308;50.948;4.706;2023-06-10T05:30:26;21.80;99.90
24146;DHT22;12308;50.948;4.706;2023-06-10T05:32:52;21.90;99.90
24146;DHT22;12308;50.948;4.706;2023-06-10T05:35:18;22.00;99.90
24146;DHT22;12308;50.948;4.706;2023-06-10T05:37:44;22.00;99.90
24146;DHT22;12308;50.948;4.706;2023-06-10T05:40:11;22.20;99.90
24146;DHT22;12308;50.948;4.706;2023-06-10T05:42:36;22.20;99.90
24146;DHT22;12308;50.948;4.706;2023-06-10T05:45:03;22.20;99.90
24146;DHT22;12308;50.948;4.706;2023-06-10T05:47:28;22.30;99.90
24146;DHT22;12308;50.948;4.706;2023-06-10T05:49:54;22.40;99.90
24146;DHT22;12308;50.948;4.706;2023-06-10T05:52:20;22.50;99.90
24146;DHT22;12308;50.948;4.706;2023-06-10T05:54:46;22.40;99.90
24146;DHT22;12308;50.948;4.706;2023-06-10T05:57:11;22.60;99.90
24146;DHT22;12308;50.948;4.706;2023-06-10T05:59:37;22.70;99.90
24146;DHT22;12308;50.948;4.706;2023-06-10T06:02:03;22.90;99.90
24146;DHT22;12308;50.948;4.706;2023-06-10T06:04:29;23.00;99.90
24146;DHT22;12308;50.948;4.706;2023-06-10T06:06:54;23.10;99.90
24146;DHT22;12308;50.948;4.706;2023-06-10T06:09:20;23.30;99.90
24146;DHT22;12308;50.948;4.706;2023-06-10T06:11:46;23.40;99.90
24146;DHT22;12308;50.948;4.706;2023-06-10T06:14:12;23.50;99.90
24146;DHT22;12308;50.948;4.706;2023-06-10T06:16:38;23.60;99.90
24146;DHT22;12308;50.948;4.706;2023-06-10T06:19:04;23.70;99.90
24146;DHT22;12308;50.948;4.706;2023-06-10T06:21:29;23.60;99.90
24146;DHT22;12308;50.948;4.706;2023-06-10T06:23:55;23.50;99.90
24146;DHT22;12308;50.948;4.706;2023-06-10T06:26:21;23.50;99.90
24146;DHT22;12308;50.948;4.706;2023-06-10T06:28:46;23.40;99.90
24146;DHT22;12308;50.948;4.706;2023-06-10T06:31:12;23.50;99.90
24146;DHT22;12308;50.948;4.706;2023-06-10T06:33:37;23.70;99.90
24146;DHT22;12308;50.948;4.706;2023-06-10T06:36:03;23.70;99.90
24146;DHT22;12308;50.948;4.706;2023-06-10T06:38:29;23.90;99.90
24146;DHT22;12308;50.948;4.706;2023-06-10T06:40:55;24.10;99.90
24146;DHT22;12308;50.948;4.706;2023-06-10T06:43:20;24.10;99.90
24146;DHT22;12308;50.948;4.706;2023-06-10T06:45:46;24.00;99.90
24146;DHT22;12308;50.948;4.706;2023-06-10T06:48:12;24.20;99.90
24146;DHT22;12308;50.948;4.706;2023-06-10T06:50:37;24.30;99.90
24146;DHT22;12308;50.948;4.706;2023-06-10T06:53:04;24.20;99.90
24146;DHT22;12308;50.948;4.706;2023-06-10T06:55:30;24.20;99.90
24146;DHT22;12308;50.948;4.706;2023-06-10T06:57:56;24.20;99.90
24146;DHT22;12308;50.948;4.706;2023-06-10T07:00:21;24.40;99.90
24146;DHT22;12308;50.948;4.706;2023-06-10T07:02:48;24.40;99.90
24146;DHT22;12308;50.948;4.706;2023-06-10T07:05:13;24.50;99.90
24146;DHT22;12308;50.948;4.706;2023-06-10T07:07:39;24.70;99.90
24146;DHT22;12308;50.948;4.706;2023-06-10T07:10:05;24.70;99.90
24146;DHT22;12308;50.948;4.706;2023-06-10T07:12:31;24.70;99.90
24146;DHT22;12308;50.948;4.706;2023-06-10T07:14:57;24.90;99.90
24146;DHT22;12308;50.948;4.706;2023-06-10T07:17:22;25.00;99.90
24146;DHT22;12308;50.948;4.706;2023-06-10T07:19:48;25.00;99.90
24146;DHT22;12308;50.948;4.706;2023-06-10T07:22:14;25.00;99.90
24146;DHT22;12308;50.948;4.706;2023-06-10T07:24:40;25.20;99.90
24146;DHT22;12308;50.948;4.706;2023-06-10T07:27:06;25.30;99.90
24146;DHT22;12308;50.948;4.706;2023-06-10T07:29:32;25.50;99.90
24146;DHT22;12308;50.948;4.706;2023-06-10T07:31:58;25.30;99.90
24146;DHT22;12308;50.948;4.706;2023-06-10T07:34:24;25.30;99.90
24146;DHT22;12308;50.948;4.706;2023-06-10T07:36:49;25.50;99.90
24146;DHT22;12308;50.948;4.706;2023-06-10T07:39:15;25.80;99.90
24146;DHT22;12308;50.948;4.706;2023-06-10T07:41:41;26.00;99.90
24146;DHT22;12308;50.948;4.706;2023-06-10T07:44:07;25.90;99.90
24146;DHT22;12308;50.948;4.706;2023-06-10T07:46:32;26.00;99.90
24146;DHT22;12308;50.948;4.706;2023-06-10T07:48:58;26.00;99.90
24146;DHT22;12308;50.948;4.706;2023-06-10T07:51:23;26.00;99.90
24146;DHT22;12308;50.948;4.706;2023-06-10T07:53:49;26.20;99.90
24146;DHT22;12308;50.948;4.706;2023-06-10T07:56:15;26.20;99.90
24146;DHT22;12308;50.948;4.706;2023-06-10T07:58:41;26.30;99.90
24146;DHT22;12308;50.948;4.706;2023-06-10T08:01:06;26.40;99.90
24146;DHT22;12308;50.948;4.706;2023-06-10T08:03:32;26.40;99.90
24146;DHT22;12308;50.948;4.706;2023-06-10T08:05:58;26.60;99.90
24146;DHT22;12308;50.948;4.706;2023-06-10T08:08:24;26.60;99.90
24146;DHT22;12308;50.948;4.706;2023-06-10T08:10:50;26.60;99.90
24146;DHT22;12308;50.948;4.706;2023-06-10T08:13:15;26.70;99.90
24146;DHT22;12308;50.948;4.706;2023-06-10T08:15:41;26.80;99.90
24146;DHT22;12308;50.948;4.706;2023-06-10T08:18:07;26.90;99.90
24146;DHT22;12308;50.948;4.706;2023-06-10T08:20:32;27.10;99.90
24146;DHT22;12308;50.948;4.706;2023-06-10T08:22:58;27.10;99.90
24146;DHT22;12308;50.948;4.706;2023-06-10T08:25:23;27.10;99.90
24146;DHT22;12308;50.948;4.706;2023-06-10T08:27:49;27.10;99.90
24146;DHT22;12308;50.948;4.706;2023-06-10T08:30:16;27.20;99.90
24146;DHT22;12308;50.948;4.706;2023-06-10T08:32:42;27.30;99.90
24146;DHT22;12308;50.948;4.706;2023-06-10T08:35:08;27.40;99.90
24146;DHT22;12308;50.948;4.706;2023-06-10T08:37:33;27.60;99.90
24146;DHT22;12308;50.948;4.706;2023-06-10T08:39:59;27.50;99.90
24146;DHT22;12308;50.948;4.706;2023-06-10T08:44:56;27.80;99.90
24146;DHT22;12308;50.948;4.706;2023-06-10T08:47:23;27.90;99.90
24146;DHT22;12308;50.948;4.706;2023-06-10T08:49:51;27.80;99.90
24146;DHT22;12308;50.948;4.706;2023-06-10T08:52:21;27.90;99.90
24146;DHT22;12308;50.948;4.706;2023-06-10T08:55:23;28.10;99.90
24146;DHT22;12308;50.948;4.706;2023-06-10T08:57:52;28.00;99.90
24146;DHT22;12308;50.948;4.706;2023-06-10T09:00:19;28.00;99.90
24146;DHT22;12308;50.948;4.706;2023-06-10T09:02:45;28.00;99.90
24146;DHT22;12308;50.948;4.706;2023-06-10T09:05:12;28.10;99.90
24146;DHT22;12308;50.948;4.706;2023-06-10T09:07:39;28.30;99.90
24146;DHT22;12308;50.948;4.706;2023-06-10T09:10:05;28.30;99.90
24146;DHT22;12308;50.948;4.706;2023-06-10T09:12:33;28.40;99.90
24146;DHT22;12308;50.948;4.706;2023-06-10T09:14:59;28.50;99.90
24146;DHT22;12308;50.948;4.706;2023-06-10T09:17:25;28.60;99.90
24146;DHT22;12308;50.948;4.706;2023-06-10T09:19:52;28.70;99.90
24146;DHT22;12308;50.948;4.706;2023-06-10T09:22:23;28.80;99.90
24146;DHT22;12308;50.948;4.706;2023-06-10T09:24:49;28.90;99.90
24146;DHT22;12308;50.948;4.706;2023-06-10T09:27:15;28.90;99.90
24146;DHT22;12308;50.948;4.706;2023-06-10T09:29:46;29.20;99.90
24146;DHT22;12308;50.948;4.706;2023-06-10T09:32:12;29.40;99.90
24146;DHT22;12308;50.948;4.706;2023-06-10T09:34:39;29.30;99.90
24146;DHT22;12308;50.948;4.706;2023-06-10T09:37:05;29.50;99.90
24146;DHT22;12308;50.948;4.706;2023-06-10T09:39:32;29.60;99.90
24146;DHT22;12308;50.948;4.706;2023-06-10T09:41:57;29.50;99.90
24146;DHT22;12308;50.948;4.706;2023-06-10T09:44:23;29.70;99.90
24146;DHT22;12308;50.948;4.706;2023-06-10T09:46:50;29.70;99.90
24146;DHT22;12308;50.948;4.706;2023-06-10T09:49:17;29.50;99.90
24146;DHT22;12308;50.948;4.706;2023-06-10T09:51:53;29.60;99.90
24146;DHT22;12308;50.948;4.706;2023-06-10T09:54:19;29.60;99.90
24146;DHT22;12308;50.948;4.706;2023-06-10T09:56:49;29.60;99.90
24146;DHT22;12308;50.948;4.706;2023-06-10T09:59:15;29.70;99.90
24146;DHT22;12308;50.948;4.706;2023-06-10T10:01:41;29.60;99.90
24146;DHT22;12308;50.948;4.706;2023-06-10T10:04:07;29.50;99.90
24146;DHT22;12308;50.948;4.706;2023-06-10T10:06:34;29.40;99.90
24146;DHT22;12308;50.948;4.706;2023-06-10T10:09:00;29.50;99.90
24146;DHT22;12308;50.948;4.706;2023-06-10T10:11:27;29.50;99.90
24146;DHT22;12308;50.948;4.706;2023-06-10T10:13:53;29.70;99.90
24146;DHT22;12308;50.948;4.706;2023-06-10T10:16:37;29.60;99.90
24146;DHT22;12308;50.948;4.706;2023-06-10T10:19:20;29.70;99.90
24146;DHT22;12308;50.948;4.706;2023-06-10T10:21:53;29.90;99.90
24146;DHT22;12308;50.948;4.706;2023-06-10T10:24:21;30.00;99.90
24146;DHT22;12308;50.948;4.706;2023-06-10T10:26:50;30.10;99.90
24146;DHT22;12308;50.948;4.706;2023-06-10T10:29:37;30.10;99.90
24146;DHT22;12308;50.948;4.706;2023-06-10T10:32:04;30.10;99.90
24146;DHT22;12308;50.948;4.706;2023-06-10T10:34:35;30.00;99.90
24146;DHT22;12308;50.948;4.706;2023-06-10T10:37:02;30.00;99.90
24146;DHT22;12308;50.948;4.706;2023-06-10T10:39:29;30.20;99.90
24146;DHT22;12308;50.948;4.706;2023-06-10T10:41:55;30.30;99.90
24146;DHT22;12308;50.948;4.706;2023-06-10T10:44:22;30.30;99.90
24146;DHT22;12308;50.948;4.706;2023-06-10T10:46:51;30.40;98.70
24146;DHT22;12308;50.948;4.706;2023-06-10T10:49:18;30.50;97.80
24146;DHT22;12308;50.948;4.706;2023-06-10T10:52:01;30.50;97.40
24146;DHT22;12308;50.948;4.706;2023-06-10T10:54:32;30.60;97.70
24146;DHT22;12308;50.948;4.706;2023-06-10T10:57:14;30.70;97.20
24146;DHT22;12308;50.948;4.706;2023-06-10T11:02:34;30.70;98.30
24146;DHT22;12308;50.948;4.706;2023-06-10T11:05:01;30.80;98.00
24146;DHT22;12308;50.948;4.706;2023-06-10T11:07:30;30.80;98.30
24146;DHT22;12308;50.948;4.706;2023-06-10T11:10:07;30.80;98.30
24146;DHT22;12308;50.948;4.706;2023-06-10T11:12:53;30.90;97.60
24146;DHT22;12308;50.948;4.706;2023-06-10T11:15:24;31.00;96.40
24146;DHT22;12308;50.948;4.706;2023-06-10T11:26:13;31.20;95.70
24146;DHT22;12308;50.948;4.706;2023-06-10T11:28:39;31.00;95.60
24146;DHT22;12308;50.948;4.706;2023-06-10T11:31:06;31.00;95.50
24146;DHT22;12308;50.948;4.706;2023-06-10T11:33:32;31.10;96.00
24146;DHT22;12308;50.948;4.706;2023-06-10T11:35:58;31.20;95.90
24146;DHT22;12308;50.948;4.706;2023-06-10T11:38:24;31.20;95.60
24146;DHT22;12308;50.948;4.706;2023-06-10T11:40:51;31.20;94.20
24146;DHT22;12308;50.948;4.706;2023-06-10T11:43:17;31.30;95.50
24146;DHT22;12308;50.948;4.706;2023-06-10T11:45:43;31.30;95.60
24146;DHT22;12308;50.948;4.706;2023-06-10T11:48:10;31.50;93.80
24146;DHT22;12308;50.948;4.706;2023-06-10T11:50:37;31.40;93.70
24146;DHT22;12308;50.948;4.706;2023-06-10T11:53:03;31.20;93.70
24146;DHT22;12308;50.948;4.706;2023-06-10T11:55:46;31.20;94.60
24146;DHT22;12308;50.948;4.706;2023-06-10T11:58:20;31.20;93.00
24146;DHT22;12308;50.948;4.706;2023-06-10T12:00:53;31.30;94.30
24146;DHT22;12308;50.948;4.706;2023-06-10T12:03:20;31.40;93.60
24146;DHT22;12308;50.948;4.706;2023-06-10T12:06:06;31.60;93.50
24146;DHT22;12308;50.948;4.706;2023-06-10T12:08:33;31.80;93.30
24146;DHT22;12308;50.948;4.706;2023-06-10T12:10:58;31.80;93.60
24146;DHT22;12308;50.948;4.706;2023-06-10T12:13:28;31.80;93.20
24146;DHT22;12308;50.948;4.706;2023-06-10T12:15:54;32.00;92.50
24146;DHT22;12308;50.948;4.706;2023-06-10T12:18:23;32.00;92.70
24146;DHT22;12308;50.948;4.706;2023-06-10T12:20:50;32.00;92.00
24146;DHT22;12308;50.948;4.706;2023-06-10T12:23:19;32.00;92.00
24146;DHT22;12308;50.948;4.706;2023-06-10T12:25:55;31.90;92.40
24146;DHT22;12308;50.948;4.706;2023-06-10T12:28:25;32.00;91.50
24146;DHT22;12308;50.948;4.706;2023-06-10T12:33:31;31.80;90.40
24146;DHT22;12308;50.948;4.706;2023-06-10T12:35:57;31.70;90.10
24146;DHT22;12308;50.948;4.706;2023-06-10T12:38:24;31.60;89.60
24146;DHT22;12308;50.948;4.706;2023-06-10T12:40:53;31.70;90.80
24146;DHT22;12308;50.948;4.706;2023-06-10T12:43:25;31.70;91.80
24146;DHT22;12308;50.948;4.706;2023-06-10T12:45:51;31.80;91.80
24146;DHT22;12308;50.948;4.706;2023-06-10T12:48:19;31.80;91.50
24146;DHT22;12308;50.948;4.706;2023-06-10T12:50:51;31.90;91.40
24146;DHT22;12308;50.948;4.706;2023-06-10T12:53:18;31.90;91.90
24146;DHT22;12308;50.948;4.706;2023-06-10T12:55:45;32.20;92.00
24146;DHT22;12308;50.948;4.706;2023-06-10T12:58:11;32.20;90.70
24146;DHT22;12308;50.948;4.706;2023-06-10T13:00:37;32.30;91.30
24146;DHT22;12308;50.948;4.706;2023-06-10T13:03:04;32.50;91.50
24146;DHT22;12308;50.948;4.706;2023-06-10T13:05:33;32.50;89.70
24146;DHT22;12308;50.948;4.706;2023-06-10T13:07:59;32.30;90.10
24146;DHT22;12308;50.948;4.706;2023-06-10T13:10:25;32.40;90.40
24146;DHT22;12308;50.948;4.706;2023-06-10T13:12:51;32.40;88.70
24146;DHT22;12308;50.948;4.706;2023-06-10T13:15:18;32.40;88.20
24146;DHT22;12308;50.948;4.706;2023-06-10T13:17:44;32.30;90.30
24146;DHT22;12308;50.948;4.706;2023-06-10T13:20:14;32.40;89.30
24146;DHT22;12308;50.948;4.706;2023-06-10T13:22:40;32.40;91.00
24146;DHT22;12308;50.948;4.706;2023-06-10T13:25:05;32.50;89.30
24146;DHT22;12308;50.948;4.706;2023-06-10T13:27:35;32.50;89.70
24146;DHT22;12308;50.948;4.706;2023-06-10T13:30:04;32.40;87.50
24146;DHT22;12308;50.948;4.706;2023-06-10T13:32:30;32.40;88.60
24146;DHT22;12308;50.948;4.706;2023-06-10T13:34:56;32.40;90.40
24146;DHT22;12308;50.948;4.706;2023-06-10T13:37:22;32.50;90.40
24146;DHT22;12308;50.948;4.706;2023-06-10T13:39:48;32.50;89.60
24146;DHT22;12308;50.948;4.706;2023-06-10T13:42:19;32.50;87.70
24146;DHT22;12308;50.948;4.706;2023-06-10T13:44:45;32.50;88.10
24146;DHT22;12308;50.948;4.706;2023-06-10T13:47:11;32.60;86.30
24146;DHT22;12308;50.948;4.706;2023-06-10T13:49:36;32.60;86.90
24146;DHT22;12308;50.948;4.706;2023-06-10T13:52:03;32.50;88.60
24146;DHT22;12308;50.948;4.706;2023-06-10T13:54:28;32.50;91.10
24146;DHT22;12308;50.948;4.706;2023-06-10T13:56:54;32.60;90.60
24146;DHT22;12308;50.948;4.706;2023-06-10T13:59:20;32.70;87.40
24146;DHT22;12308;50.948;4.706;2023-06-10T14:01:47;32.60;88.10
24146;DHT22;12308;50.948;4.706;2023-06-10T14:04:12;32.60;87.60
24146;DHT22;12308;50.948;4.706;2023-06-10T14:06:38;32.70;90.00
24146;DHT22;12308;50.948;4.706;2023-06-10T14:09:05;32.90;89.00
24146;DHT22;12308;50.948;4.706;2023-06-10T14:11:30;32.90;89.80
24146;DHT22;12308;50.948;4.706;2023-06-10T14:13:57;33.00;87.80
24146;DHT22;12308;50.948;4.706;2023-06-10T14:16:23;33.10;87.90
24146;DHT22;12308;50.948;4.706;2023-06-10T14:18:50;33.10;87.80
24146;DHT22;12308;50.948;4.706;2023-06-10T14:21:19;33.10;87.20
24146;DHT22;12308;50.948;4.706;2023-06-10T14:23:45;33.00;87.80
24146;DHT22;12308;50.948;4.706;2023-06-10T14:26:11;32.90;88.00
24146;DHT22;12308;50.948;4.706;2023-06-10T14:28:37;32.90;84.70
24146;DHT22;12308;50.948;4.706;2023-06-10T14:31:02;33.10;85.20
24146;DHT22;12308;50.948;4.706;2023-06-10T14:33:28;33.00;84.30
24146;DHT22;12308;50.948;4.706;2023-06-10T14:35:54;33.10;84.90
24146;DHT22;12308;50.948;4.706;2023-06-10T14:38:20;33.10;82.50
24146;DHT22;12308;50.948;4.706;2023-06-10T14:40:46;33.00;84.90
24146;DHT22;12308;50.948;4.706;2023-06-10T14:43:11;32.80;83.20
24146;DHT22;12308;50.948;4.706;2023-06-10T14:45:38;32.90;84.00
24146;DHT22;12308;50.948;4.706;2023-06-10T14:48:06;32.90;85.50
24146;DHT22;12308;50.948;4.706;2023-06-10T14:50:33;32.90;85.60
24146;DHT22;12308;50.948;4.706;2023-06-10T14:53:00;33.10;87.60
24146;DHT22;12308;50.948;4.706;2023-06-10T14:55:25;33.10;87.50
24146;DHT22;12308;50.948;4.706;2023-06-10T14:57:51;33.10;82.80
24146;DHT22;12308;50.948;4.706;2023-06-10T15:00:17;33.10;80.00
24146;DHT22;12308;50.948;4.706;2023-06-10T15:02:48;33.20;81.00
24146;DHT22;12308;50.948;4.706;2023-06-10T15:05:14;33.30;80.30
24146;DHT22;12308;50.948;4.706;2023-06-10T15:07:41;33.30;83.20
24146;DHT22;12308;50.948;4.706;2023-06-10T15:10:07;33.10;82.10
24146;DHT22;12308;50.948;4.706;2023-06-10T15:12:34;33.10;83.20
24146;DHT22;12308;50.948;4.706;2023-06-10T15:14:59;33.10;86.20
24146;DHT22;12308;50.948;4.706;2023-06-10T15:17:25;33.30;85.40
24146;DHT22;12308;50.948;4.706;2023-06-10T15:19:51;33.10;84.50
24146;DHT22;12308;50.948;4.706;2023-06-10T15:22:17;33.10;84.90
24146;DHT22;12308;50.948;4.706;2023-06-10T15:24:43;33.20;86.10
24146;DHT22;12308;50.948;4.706;2023-06-10T15:27:08;33.30;84.20
24146;DHT22;12308;50.948;4.706;2023-06-10T15:29:34;33.30;85.70
24146;DHT22;12308;50.948;4.706;2023-06-10T15:32:00;33.40;84.10
24146;DHT22;12308;50.948;4.706;2023-06-10T15:34:25;33.40;83.90
24146;DHT22;12308;50.948;4.706;2023-06-10T15:36:51;33.50;81.30
24146;DHT22;12308;50.948;4.706;2023-06-10T15:39:17;33.30;82.70
24146;DHT22;12308;50.948;4.706;2023-06-10T15:41:44;33.30;82.20
24146;DHT22;12308;50.948;4.706;2023-06-10T15:44:10;33.30;82.80
24146;DHT22;12308;50.948;4.706;2023-06-10T15:46:35;33.30;82.50